sensor_id;sensor_type;location;lat;lon;timestamp;pressure;altitude;pressure_sealevel;temperature;humidity
32324;BME280;25666;44.350;9.222;2023-08-01T00:01:28;101018.97;;;21.89;100.00
32324;BME280;25666;44.350;9.222;2023-08-01T00:03:54;101019.38;;;21.84;100.00
32324;BME280;25666;44.350;9.222;2023-08-01T00:06:19;101012.88;;;21.87;100.00
32324;BME280;25666;44.350;9.222;2023-08-01T00:08:45;101009.53;;;21.99;100.00
32324;BME280;25666;44.350;9.222;2023-08-01T00:11:10;100996.09;;;22.07;100.00
32324;BME280;25666;44.350;9.222;2023-08-01T00:13:37;100988.47;;;22.00;100.00
32324;BME280;25666;44.350;9.222;2023-08-01T00:16:02;100982.09;;;21.93;100.00
32324;BME280;25666;44.350;9.222;2023-08-01T00:18:28;100983.78;;;22.20;100.00
32324;BME280;25666;44.350;9.222;2023-08-01T00:20:53;100992.75;;;22.15;100.00
32324;BME280;25666;44.350;9.222;2023-08-01T00:23:19;100974.78;;;21.95;100.00
32324;BME280;25666;44.350;9.222;2023-08-01T00:25:45;100971.50;;;21.97;100.00
32324;BME280;25666;44.350;9.222;2023-08-01T00:28:19;100970.38;;;21.87;100.00
32324;BME280;25666;44.350;9.222;2023-08-01T00:30:45;100967.00;;;21.99;100.00
32324;BME280;25666;44.350;9.222;2023-08-01T00:33:10;100959.84;;;21.91;100.00
32324;BME280;25666;44.350;9.222;2023-08-01T00:35:36;100953.25;;;22.01;100.00
32324;BME280;25666;44.350;9.222;2023-08-01T00:38:01;100952.97;;;21.88;100.00
32324;BME280;25666;44.350;9.222;2023-08-01T00:40:31;100957.78;;;21.95;100.00
32324;BME280;25666;44.350;9.222;2023-08-01T00:42:57;100958.63;;;21.92;100.00
32324;BME280;25666;44.350;9.222;2023-08-01T00:45:23;100954.22;;;21.84;100.00
32324;BME280;25666;44.350;9.222;2023-08-01T00:47:51;100960.59;;;21.95;100.00
32324;BME280;25666;44.350;9.222;2023-08-01T00:50:18;100959.13;;;21.80;100.00
32324;BME280;25666;44.350;9.222;2023-08-01T00:52:46;100966.78;;;21.83;100.00
32324;BME280;25666;44.350;9.222;2023-08-01T00:55:12;100972.50;;;21.79;100.00
32324;BME280;25666;44.350;9.222;2023-08-01T00:57:38;100967.34;;;22.08;100.00
32324;BME280;25666;44.350;9.222;2023-08-01T01:00:04;100972.25;;;22.04;100.00
32324;BME280;25666;44.350;9.222;2023-08-01T01:02:29;100960.56;;;21.99;100.00
32324;BME280;25666;44.350;9.222;2023-08-01T01:04:55;100962.19;;;21.96;100.00
32324;BME280;25666;44.350;9.222;2023-08-01T01:07:21;100963.00;;;21.97;100.00
32324;BME280;25666;44.350;9.222;2023-08-01T01:09:47;100971.63;;;21.86;100.00
32324;BME280;25666;44.350;9.222;2023-08-01T01:12:13;100978.16;;;21.79;100.00
32324;BME280;25666;44.350;9.222;2023-08-01T01:14:38;100979.06;;;21.69;100.00
32324;BME280;25666;44.350;9.222;2023-08-01T01:17:04;100974.66;;;21.65;100.00
32324;BME280;25666;44.350;9.222;2023-08-01T01:19:29;100979.47;;;21.68;100.00
32324;BME280;25666;44.350;9.222;2023-08-01T01:21:56;100978.50;;;21.85;100.00
32324;BME280;25666;44.350;9.222;2023-08-01T01:24:22;100969.38;;;21.67;100.00
32324;BME280;25666;44.350;9.222;2023-08-01T01:26:49;100975.88;;;21.67;100.00
32324;BME280;25666;44.350;9.222;2023-08-01T01:29:15;100963.56;;;21.81;100.00
32324;BME280;25666;44.350;9.222;2023-08-01T01:31:41;100947.69;;;21.87;100.00
32324;BME280;25666;44.350;9.222;2023-08-01T01:34:07;100937.13;;;21.95;100.00
32324;BME280;25666;44.350;9.222;2023-08-01T01:36:32;100926.34;;;22.13;100.00
32324;BME280;25666;44.350;9.222;2023-08-01T01:38:59;100928.00;;;22.10;100.00
32324;BME280;25666;44.350;9.222;2023-08-01T01:41:25;100920.88;;;21.99;100.00
32324;BME280;25666;44.350;9.222;2023-08-01T01:43:50;100927.31;;;21.99;100.00
32324;BME280;25666;44.350;9.222;2023-08-01T01:46:16;100917.59;;;22.00;100.00
32324;BME280;25666;44.350;9.222;2023-08-01T01:48:41;100915.22;;;21.99;100.00
32324;BME280;25666;44.350;9.222;2023-08-01T01:51:08;100914.00;;;21.96;100.00
32324;BME280;25666;44.350;9.222;2023-08-01T01:53:33;100907.59;;;21.92;100.00
32324;BME280;25666;44.350;9.222;2023-08-01T01:56:00;100903.97;;;21.88;100.00
32324;BME280;25666;44.350;9.222;2023-08-01T01:58:25;100906.88;;;21.81;100.00
32324;BME280;25666;44.350;9.222;2023-08-01T02:00:51;100897.91;;;21.90;100.00
32324;BME280;25666;44.350;9.222;2023-08-01T02:03:16;100889.75;;;21.95;100.00
32324;BME280;25666;44.350;9.222;2023-08-01T02:05:42;100889.31;;;21.97;100.00
32324;BME280;25666;44.350;9.222;2023-08-01T02:08:08;100889.88;;;21.81;100.00
32324;BME280;25666;44.350;9.222;2023-08-01T02:10:33;100893.59;;;21.74;100.00
32324;BME280;25666;44.350;9.222;2023-08-01T02:12:59;100887.78;;;21.55;100.00
32324;BME280;25666;44.350;9.222;2023-08-01T02:15:24;100887.31;;;21.60;100.00
32324;BME280;25666;44.350;9.222;2023-08-01T02:17:50;100887.66;;;21.62;100.00
32324;BME280;25666;44.350;9.222;2023-08-01T02:20:15;100877.63;;;21.57;100.00
32324;BME280;25666;44.350;9.222;2023-08-01T02:22:41;100883.69;;;21.56;100.00
32324;BME280;25666;44.350;9.222;2023-08-01T02:25:07;100886.63;;;21.49;100.00
32324;BME280;25666;44.350;9.222;2023-08-01T02:27:32;100878.47;;;21.88;100.00
32324;BME280;25666;44.350;9.222;2023-08-01T02:29:58;100878.41;;;21.61;100.00
32324;BME280;25666;44.350;9.222;2023-08-01T02:32:23;100870.16;;;21.74;100.00
32324;BME280;25666;44.350;9.222;2023-08-01T02:34:50;100867.88;;;21.58;100.00
32324;BME280;25666;44.350;9.222;2023-08-01T02:37:15;100867.09;;;21.58;100.00
32324;BME280;25666;44.350;9.222;2023-08-01T02:39:41;100876.72;;;21.67;100.00
32324;BME280;25666;44.350;9.222;2023-08-01T02:42:07;100876.31;;;21.65;100.00
32324;BME280;25666;44.350;9.222;2023-08-01T02:44:33;100875.97;;;21.94;100.00
32324;BME280;25666;44.350;9.222;2023-08-01T02:46:59;100881.94;;;22.03;100.00
32324;BME280;25666;44.350;9.222;2023-08-01T02:49:24;100874.09;;;22.14;100.00
32324;BME280;25666;44.350;9.222;2023-08-01T02:51:50;100869.69;;;22.39;100.00
32324;BME280;25666;44.350;9.222;2023-08-01T02:54:16;100873.16;;;22.24;100.00
32324;BME280;25666;44.350;9.222;2023-08-01T02:56:41;100858.44;;;22.02;100.00
32324;BME280;25666;44.350;9.222;2023-08-01T02:59:07;100864.47;;;22.08;100.00
32324;BME280;25666;44.350;9.222;2023-08-01T03:01:37;100864.78;;;22.13;100.00
32324;BME280;25666;44.350;9.222;2023-08-01T03:04:04;100876.25;;;22.33;100.00
32324;BME280;25666;44.350;9.222;2023-08-01T03:06:31;100871.00;;;22.31;100.00
32324;BME280;25666;44.350;9.222;2023-08-01T03:08:57;100877.00;;;22.37;100.00
32324;BME280;25666;44.350;9.222;2023-08-01T03:11:22;100868.53;;;22.33;100.00
32324;BME280;25666;44.350;9.222;2023-08-01T03:13:48;100858.34;;;22.39;100.00
32324;BME280;25666;44.350;9.222;2023-08-01T03:16:13;100857.47;;;22.42;100.00
32324;BME280;25666;44.350;9.222;2023-08-01T03:18:39;100859.13;;;22.40;100.00
32324;BME280;25666;44.350;9.222;2023-08-01T03:21:04;100851.97;;;22.32;100.00
32324;BME280;25666;44.350;9.222;2023-08-01T03:23:30;100851.97;;;22.32;100.00
32324;BME280;25666;44.350;9.222;2023-08-01T03:25:56;100852.72;;;22.36;100.00
32324;BME280;25666;44.350;9.222;2023-08-01T03:28:21;100849.38;;;22.41;100.00
32324;BME280;25666;44.350;9.222;2023-08-01T03:30:47;100848.47;;;22.48;100.00
32324;BME280;25666;44.350;9.222;2023-08-01T03:33:16;100850.94;;;22.46;100.00
32324;BME280;25666;44.350;9.222;2023-08-01T03:35:41;100848.22;;;22.38;100.00
32324;BME280;25666;44.350;9.222;2023-08-01T03:38:07;100841.44;;;22.32;100.00
32324;BME280;25666;44.350;9.222;2023-08-01T03:40:32;100849.94;;;22.32;100.00
32324;BME280;25666;44.350;9.222;2023-08-01T03:42:58;100849.22;;;22.25;100.00
32324;BME280;25666;44.350;9.222;2023-08-01T03:45:24;100843.19;;;22.23;100.00
32324;BME280;25666;44.350;9.222;2023-08-01T03:47:49;100839.50;;;22.26;100.00
32324;BME280;25666;44.350;9.222;2023-08-01T03:50:15;100839.44;;;22.29;100.00
32324;BME280;25666;44.350;9.222;2023-08-01T03:52:40;100844.91;;;22.17;100.00
32324;BME280;25666;44.350;9.222;2023-08-01T03:55:08;100845.53;;;22.01;100.00
32324;BME280;25666;44.350;9.222;2023-08-01T03:57:34;100848.78;;;22.00;100.00
32324;BME280;25666;44.350;9.222;2023-08-01T04:00:01;100861.41;;;21.95;100.00
32324;BME280;25666;44.350;9.222;2023-08-01T04:02:37;100855.97;;;22.08;100.00
32324;BME280;25666;44.350;9.222;2023-08-01T04:05:03;100857.78;;;22.21;100.00
32324;BME280;25666;44.350;9.222;2023-08-01T04:07:29;100857.03;;;22.17;100.00
32324;BME280;25666;44.350;9.222;2023-08-01T04:09:55;100857.81;;;22.18;100.00
32324;BME280;25666;44.350;9.222;2023-08-01T04:12:21;100864.75;;;22.17;100.00
32324;BME280;25666;44.350;9.222;2023-08-01T04:14:46;100854.09;;;22.24;100.00
32324;BME280;25666;44.350;9.222;2023-08-01T04:17:12;100838.69;;;22.25;100.00
32324;BME280;25666;44.350;9.222;2023-08-01T04:19:37;100840.63;;;22.32;100.00
32324;BME280;25666;44.350;9.222;2023-08-01T04:22:03;100843.34;;;22.39;100.00
32324;BME280;25666;44.350;9.222;2023-08-01T04:24:28;100828.97;;;22.50;100.00
32324;BME280;25666;44.350;9.222;2023-08-01T04:26:56;100834.19;;;22.55;100.00
32324;BME280;25666;44.350;9.222;2023-08-01T04:29:21;100832.16;;;22.55;100.00
32324;BME280;25666;44.350;9.222;2023-08-01T04:31:47;100828.56;;;22.51;100.00
32324;BME280;25666;44.350;9.222;2023-08-01T04:34:13;100828.94;;;22.53;100.00
32324;BME280;25666;44.350;9.222;2023-08-01T04:36:38;100824.00;;;22.57;100.00
32324;BME280;25666;44.350;9.222;2023-08-01T04:39:04;100820.66;;;22.62;100.00
32324;BME280;25666;44.350;9.222;2023-08-01T04:41:31;100808.97;;;22.60;100.00
32324;BME280;25666;44.350;9.222;2023-08-01T04:43:56;100813.16;;;22.52;100.00
32324;BME280;25666;44.350;9.222;2023-08-01T04:46:22;100817.78;;;22.42;100.00
32324;BME280;25666;44.350;9.222;2023-08-01T04:48:47;100827.59;;;22.34;100.00
32324;BME280;25666;44.350;9.222;2023-08-01T04:51:12;100826.44;;;22.32;100.00
32324;BME280;25666;44.350;9.222;2023-08-01T04:53:38;100817.06;;;22.35;100.00
32324;BME280;25666;44.350;9.222;2023-08-01T04:56:03;100830.03;;;22.36;100.00
32324;BME280;25666;44.350;9.222;2023-08-01T04:58:29;100823.84;;;22.41;100.00
32324;BME280;25666;44.350;9.222;2023-08-01T05:00:55;100835.25;;;22.37;100.00
32324;BME280;25666;44.350;9.222;2023-08-01T05:03:21;100838.31;;;22.50;100.00
32324;BME280;25666;44.350;9.222;2023-08-01T05:05:47;100833.63;;;22.63;100.00
32324;BME280;25666;44.350;9.222;2023-08-01T05:08:12;100843.22;;;22.73;100.00
32324;BME280;25666;44.350;9.222;2023-08-01T05:10:38;100834.03;;;22.65;100.00
32324;BME280;25666;44.350;9.222;2023-08-01T05:13:03;100830.28;;;22.72;100.00
32324;BME280;25666;44.350;9.222;2023-08-01T05:15:29;100828.47;;;22.81;100.00
32324;BME280;25666;44.350;9.222;2023-08-01T05:17:54;100820.38;;;22.83;100.00
32324;BME280;25666;44.350;9.222;2023-08-01T05:20:21;100827.00;;;22.73;100.00
32324;BME280;25666;44.350;9.222;2023-08-01T05:22:46;100823.97;;;22.84;100.00
32324;BME280;25666;44.350;9.222;2023-08-01T05:25:12;100825.53;;;22.88;100.00
32324;BME280;25666;44.350;9.222;2023-08-01T05:27:37;100832.38;;;22.91;100.00
32324;BME280;25666;44.350;9.222;2023-08-01T05:30:03;100821.75;;;22.95;100.00
32324;BME280;25666;44.350;9.222;2023-08-01T05:32:28;100818.34;;;23.04;100.00
32324;BME280;25666;44.350;9.222;2023-08-01T05:34:54;100822.75;;;23.08;100.00
32324;BME280;25666;44.350;9.222;2023-08-01T05:37:19;100816.19;;;23.11;100.00
32324;BME280;25666;44.350;9.222;2023-08-01T05:39:45;100826.44;;;23.05;100.00
32324;BME280;25666;44.350;9.222;2023-08-01T05:42:10;100828.28;;;23.15;100.00
32324;BME280;25666;44.350;9.222;2023-08-01T05:44:36;100822.91;;;23.21;100.00
32324;BME280;25666;44.350;9.222;2023-08-01T05:47:01;100809.31;;;23.09;100.00
32324;BME280;25666;44.350;9.222;2023-08-01T05:49:27;100811.97;;;23.19;100.00
32324;BME280;25666;44.350;9.222;2023-08-01T05:51:54;100803.81;;;23.21;100.00
32324;BME280;25666;44.350;9.222;2023-08-01T05:54:20;100813.88;;;23.26;100.00
32324;BME280;25666;44.350;9.222;2023-08-01T05:56:45;100810.47;;;23.34;100.00
32324;BME280;25666;44.350;9.222;2023-08-01T05:59:11;100809.13;;;23.42;100.00
32324;BME280;25666;44.350;9.222;2023-08-01T06:01:36;100795.13;;;23.52;100.00
32324;BME280;25666;44.350;9.222;2023-08-01T06:04:02;100794.59;;;23.76;100.00
32324;BME280;25666;44.350;9.222;2023-08-01T06:06:27;100801.91;;;23.93;100.00
32324;BME280;25666;44.350;9.222;2023-08-01T06:08:53;100800.00;;;24.07;100.00
32324;BME280;25666;44.350;9.222;2023-08-01T06:11:19;100806.63;;;24.20;100.00
32324;BME280;25666;44.350;9.222;2023-08-01T06:13:44;100800.06;;;24.23;100.00
32324;BME280;25666;44.350;9.222;2023-08-01T06:16:09;100802.81;;;24.26;100.00
32324;BME280;25666;44.350;9.222;2023-08-01T06:18:36;100810.56;;;24.26;100.00
32324;BME280;25666;44.350;9.222;2023-08-01T06:21:01;100818.28;;;24.25;100.00
32324;BME280;25666;44.350;9.222;2023-08-01T06:23:27;100823.97;;;24.25;100.00
32324;BME280;25666;44.350;9.222;2023-08-01T06:25:53;100824.16;;;24.18;100.00
32324;BME280;25666;44.350;9.222;2023-08-01T06:28:18;100815.09;;;24.23;100.00
32324;BME280;25666;44.350;9.222;2023-08-01T06:30:45;100813.75;;;24.28;100.00
32324;BME280;25666;44.350;9.222;2023-08-01T06:33:11;100807.34;;;24.24;100.00
32324;BME280;25666;44.350;9.222;2023-08-01T06:35:36;100814.13;;;24.30;100.00
32324;BME280;25666;44.350;9.222;2023-08-01T06:38:02;100818.13;;;24.32;100.00
32324;BME280;25666;44.350;9.222;2023-08-01T06:40:27;100820.06;;;24.35;100.00
32324;BME280;25666;44.350;9.222;2023-08-01T06:42:53;100818.03;;;24.36;100.00
32324;BME280;25666;44.350;9.222;2023-08-01T06:45:18;100809.44;;;24.39;100.00
32324;BME280;25666;44.350;9.222;2023-08-01T06:47:44;100817.69;;;24.50;100.00
32324;BME280;25666;44.350;9.222;2023-08-01T06:50:09;100830.25;;;24.52;100.00
32324;BME280;25666;44.350;9.222;2023-08-01T06:52:35;100820.44;;;24.70;100.00
32324;BME280;25666;44.350;9.222;2023-08-01T06:55:00;100818.06;;;25.29;100.00
32324;BME280;25666;44.350;9.222;2023-08-01T06:57:27;100812.97;;;25.66;100.00
32324;BME280;25666;44.350;9.222;2023-08-01T06:59:52;100813.19;;;26.00;100.00
32324;BME280;25666;44.350;9.222;2023-08-01T07:02:18;100810.50;;;29.04;100.00
32324;BME280;25666;44.350;9.222;2023-08-01T07:04:44;100804.53;;;28.22;100.00
32324;BME280;25666;44.350;9.222;2023-08-01T07:07:09;100809.41;;;26.66;100.00
32324;BME280;25666;44.350;9.222;2023-08-01T07:09:35;100817.50;;;26.04;100.00
32324;BME280;25666;44.350;9.222;2023-08-01T07:12:00;100829.44;;;25.74;100.00
32324;BME280;25666;44.350;9.222;2023-08-01T07:14:26;100832.69;;;25.60;100.00
32324;BME280;25666;44.350;9.222;2023-08-01T07:16:51;100836.13;;;25.39;100.00
32324;BME280;25666;44.350;9.222;2023-08-01T07:19:17;100834.28;;;25.32;100.00
32324;BME280;25666;44.350;9.222;2023-08-01T07:21:42;100831.03;;;25.88;100.00
32324;BME280;25666;44.350;9.222;2023-08-01T07:24:10;100822.81;;;28.64;100.00
32324;BME280;25666;44.350;9.222;2023-08-01T07:26:35;100821.34;;;29.72;100.00
32324;BME280;25666;44.350;9.222;2023-08-01T07:29:01;100811.50;;;27.47;100.00
32324;BME280;25666;44.350;9.222;2023-08-01T07:31:26;100812.00;;;26.98;100.00
32324;BME280;25666;44.350;9.222;2023-08-01T07:33:52;100803.97;;;26.46;100.00
32324;BME280;25666;44.350;9.222;2023-08-01T07:36:17;100808.59;;;26.78;100.00
32324;BME280;25666;44.350;9.222;2023-08-01T07:38:43;100796.94;;;31.17;100.00
32324;BME280;25666;44.350;9.222;2023-08-01T07:41:09;100797.63;;;29.45;100.00
32324;BME280;25666;44.350;9.222;2023-08-01T07:43:35;100805.31;;;28.01;100.00
32324;BME280;25666;44.350;9.222;2023-08-01T07:46:00;100805.53;;;27.41;100.00
32324;BME280;25666;44.350;9.222;2023-08-01T07:48:26;100803.25;;;27.14;100.00
32324;BME280;25666;44.350;9.222;2023-08-01T07:50:51;100804.47;;;26.92;100.00
32324;BME280;25666;44.350;9.222;2023-08-01T07:53:17;100799.94;;;26.44;100.00
32324;BME280;25666;44.350;9.222;2023-08-01T07:55:42;100796.22;;;26.34;100.00
32324;BME280;25666;44.350;9.222;2023-08-01T07:58:08;100795.50;;;26.05;100.00
32324;BME280;25666;44.350;9.222;2023-08-01T08:00:36;100803.28;;;26.17;100.00
32324;BME280;25666;44.350;9.222;2023-08-01T08:03:02;100786.69;;;28.18;100.00
32324;BME280;25666;44.350;9.222;2023-08-01T08:05:27;100789.44;;;27.69;100.00
32324;BME280;25666;44.350;9.222;2023-08-01T08:07:53;100790.28;;;27.01;100.00
32324;BME280;25666;44.350;9.222;2023-08-01T08:10:18;100784.22;;;27.77;100.00
32324;BME280;25666;44.350;9.222;2023-08-01T08:12:44;100776.63;;;28.44;100.00
32324;BME280;25666;44.350;9.222;2023-08-01T08:15:09;100770.84;;;29.11;100.00
32324;BME280;25666;44.350;9.222;2023-08-01T08:17:35;100768.56;;;28.70;100.00
32324;BME280;25666;44.350;9.222;2023-08-01T08:20:01;100768.66;;;28.48;100.00
32324;BME280;25666;44.350;9.222;2023-08-01T08:22:26;100779.63;;;28.10;100.00
32324;BME280;25666;44.350;9.222;2023-08-01T08:24:53;100785.03;;;28.08;100.00
32324;BME280;25666;44.350;9.222;2023-08-01T08:27:18;100783.09;;;27.74;100.00
32324;BME280;25666;44.350;9.222;2023-08-01T08:29:44;100783.69;;;26.91;100.00
32324;BME280;25666;44.350;9.222;2023-08-01T08:32:09;100783.81;;;27.22;100.00
32324;BME280;25666;44.350;9.222;2023-08-01T08:34:34;100780.09;;;27.34;100.00
32324;BME280;25666;44.350;9.222;2023-08-01T08:37:00;100788.78;;;27.31;100.00
32324;BME280;25666;44.350;9.222;2023-08-01T08:39:25;100779.25;;;26.90;100.00
32324;BME280;25666;44.350;9.222;2023-08-01T08:41:52;100782.22;;;26.74;100.00
32324;BME280;25666;44.350;9.222;2023-08-01T08:44:19;100794.22;;;26.69;100.00
32324;BME280;25666;44.350;9.222;2023-08-01T08:46:52;100784.19;;;26.65;100.00
32324;BME280;25666;44.350;9.222;2023-08-01T08:49:19;100768.06;;;26.71;100.00
32324;BME280;25666;44.350;9.222;2023-08-01T08:51:46;100761.78;;;26.63;100.00
32324;BME280;25666;44.350;9.222;2023-08-01T08:54:13;100760.03;;;26.31;100.00
32324;BME280;25666;44.350;9.222;2023-08-01T08:56:38;100762.13;;;26.65;100.00
32324;BME280;25666;44.350;9.222;2023-08-01T08:59:07;100755.22;;;26.88;100.00
32324;BME280;25666;44.350;9.222;2023-08-01T09:01:33;100749.53;;;26.88;100.00
32324;BME280;25666;44.350;9.222;2023-08-01T09:03:59;100760.94;;;27.22;100.00
32324;BME280;25666;44.350;9.222;2023-08-01T09:06:29;100748.31;;;27.54;100.00
32324;BME280;25666;44.350;9.222;2023-08-01T09:09:31;100749.25;;;27.51;100.00
32324;BME280;25666;44.350;9.222;2023-08-01T09:11:52;100750.19;;;27.48;100.00
32324;BME280;25666;44.350;9.222;2023-08-01T09:14:18;100751.47;;;27.47;100.00
32324;BME280;25666;44.350;9.222;2023-08-01T09:16:45;100746.88;;;27.49;100.00
32324;BME280;25666;44.350;9.222;2023-08-01T09:19:19;100744.34;;;27.51;100.00
32324;BME280;25666;44.350;9.222;2023-08-01T09:21:46;100739.00;;;27.41;100.00
32324;BME280;25666;44.350;9.222;2023-08-01T09:24:19;100741.25;;;27.24;100.00
32324;BME280;25666;44.350;9.222;2023-08-01T09:26:46;100734.06;;;27.20;100.00
32324;BME280;25666;44.350;9.222;2023-08-01T09:29:12;100719.66;;;27.23;100.00
32324;BME280;25666;44.350;9.222;2023-08-01T09:31:39;100722.56;;;27.10;100.00
32324;BME280;25666;44.350;9.222;2023-08-01T09:34:17;100719.72;;;27.10;100.00
32324;BME280;25666;44.350;9.222;2023-08-01T09:36:43;100717.28;;;27.00;100.00
32324;BME280;25666;44.350;9.222;2023-08-01T09:39:15;100716.66;;;27.27;100.00
32324;BME280;25666;44.350;9.222;2023-08-01T09:41:41;100710.75;;;27.21;100.00
32324;BME280;25666;44.350;9.222;2023-08-01T09:44:11;100715.91;;;26.92;100.00
32324;BME280;25666;44.350;9.222;2023-08-01T09:46:37;100722.44;;;26.80;100.00
32324;BME280;25666;44.350;9.222;2023-08-01T09:49:12;100708.16;;;26.92;100.00
32324;BME280;25666;44.350;9.222;2023-08-01T09:51:50;100703.69;;;26.91;100.00
32324;BME280;25666;44.350;9.222;2023-08-01T09:54:17;100686.56;;;26.91;100.00
32324;BME280;25666;44.350;9.222;2023-08-01T09:56:47;100693.94;;;27.01;100.00
32324;BME280;25666;44.350;9.222;2023-08-01T09:59:19;100697.66;;;26.89;100.00
32324;BME280;25666;44.350;9.222;2023-08-01T10:01:48;100694.78;;;27.33;100.00
32324;BME280;25666;44.350;9.222;2023-08-01T10:04:18;100693.75;;;27.18;100.00
32324;BME280;25666;44.350;9.222;2023-08-01T10:06:46;100692.88;;;27.30;100.00
32324;BME280;25666;44.350;9.222;2023-08-01T10:09:14;100685.97;;;27.18;100.00
32324;BME280;25666;44.350;9.222;2023-08-01T10:11:40;100684.00;;;27.06;100.00
32324;BME280;25666;44.350;9.222;2023-08-01T10:14:06;100682.19;;;26.65;100.00
32324;BME280;25666;44.350;9.222;2023-08-01T10:16:32;100685.09;;;26.87;100.00
32324;BME280;25666;44.350;9.222;2023-08-01T10:19:00;100682.38;;;27.05;100.00
32324;BME280;25666;44.350;9.222;2023-08-01T10:21:27;100674.94;;;27.07;100.00
32324;BME280;25666;44.350;9.222;2023-08-01T10:23:54;100684.44;;;27.04;100.00
32324;BME280;25666;44.350;9.222;2023-08-01T10:26:20;100683.09;;;27.40;100.00
32324;BME280;25666;44.350;9.222;2023-08-01T10:28:51;100680.47;;;27.02;100.00
32324;BME280;25666;44.350;9.222;2023-08-01T10:31:18;100682.00;;;27.16;100.00
32324;BME280;25666;44.350;9.222;2023-08-01T10:33:46;100674.72;;;27.45;100.00
32324;BME280;25666;44.350;9.222;2023-08-01T10:36:19;100674.13;;;27.29;100.00
32324;BME280;25666;44.350;9.222;2023-08-01T10:38:56;100673.41;;;27.37;100.00
32324;BME280;25666;44.350;9.222;2023-08-01T10:41:33;100683.50;;;27.29;100.00
32324;BME280;25666;44.350;9.222;2023-08-01T10:44:12;100692.13;;;27.60;100.00
32324;BME280;25666;44.350;9.222;2023-08-01T10:49:14;100695.97;;;27.66;100.00
32324;BME280;25666;44.350;9.222;2023-08-01T10:51:40;100693.94;;;27.45;100.00
32324;BME280;25666;44.350;9.222;2023-08-01T10:54:06;100689.13;;;27.42;100.00
32324;BME280;25666;44.350;9.222;2023-08-01T10:56:32;100696.22;;;27.28;100.00
32324;BME280;25666;44.350;9.222;2023-08-01T10:58:58;100693.06;;;27.35;100.00
32324;BME280;25666;44.350;9.222;2023-08-01T11:01:24;100690.53;;;27.37;100.00
32324;BME280;25666;44.350;9.222;2023-08-01T11:03:51;100689.06;;;27.54;100.00
32324;BME280;25666;44.350;9.222;2023-08-01T11:06:17;100689.22;;;27.29;100.00
32324;BME280;25666;44.350;9.222;2023-08-01T11:08:42;100678.91;;;27.32;100.00
32324;BME280;25666;44.350;9.222;2023-08-01T11:11:13;100676.97;;;27.29;100.00
32324;BME280;25666;44.350;9.222;2023-08-01T11:13:39;100678.28;;;27.06;100.00
32324;BME280;25666;44.350;9.222;2023-08-01T11:16:05;100670.28;;;27.23;100.00
32324;BME280;25666;44.350;9.222;2023-08-01T11:18:44;100665.16;;;27.18;100.00
32324;BME280;25666;44.350;9.222;2023-08-01T11:21:10;100660.38;;;27.14;100.00
32324;BME280;25666;44.350;9.222;2023-08-01T11:23:35;100653.41;;;27.16;100.00
32324;BME280;25666;44.350;9.222;2023-08-01T11:26:10;100658.84;;;27.01;100.00
32324;BME280;25666;44.350;9.222;2023-08-01T11:28:36;100657.53;;;27.14;100.00
32324;BME280;25666;44.350;9.222;2023-08-01T11:31:11;100641.41;;;27.30;100.00
32324;BME280;25666;44.350;9.222;2023-08-01T11:33:37;100641.88;;;27.50;100.00
32324;BME280;25666;44.350;9.222;2023-08-01T11:36:04;100639.47;;;27.48;100.00
32324;BME280;25666;44.350;9.222;2023-08-01T11:38:32;100643.88;;;27.40;100.00
32324;BME280;25666;44.350;9.222;2023-08-01T11:41:03;100629.91;;;27.42;100.00
32324;BME280;25666;44.350;9.222;2023-08-01T11:43:40;100622.34;;;27.27;100.00
32324;BME280;25666;44.350;9.222;2023-08-01T11:46:05;100611.41;;;27.03;100.00
32324;BME280;25666;44.350;9.222;2023-08-01T11:48:31;100624.53;;;27.23;100.00
32324;BME280;25666;44.350;9.222;2023-08-01T11:51:00;100624.31;;;27.08;100.00
32324;BME280;25666;44.350;9.222;2023-08-01T11:53:26;100621.50;;;27.17;100.00
32324;BME280;25666;44.350;9.222;2023-08-01T11:55:52;100615.88;;;27.04;100.00
32324;BME280;25666;44.350;9.222;2023-08-01T11:58:40;100596.75;;;27.23;100.00
32324;BME280;25666;44.350;9.222;2023-08-01T12:01:09;100608.72;;;27.31;100.00
32324;BME280;25666;44.350;9.222;2023-08-01T12:03:45;100623.28;;;27.45;100.00
32324;BME280;25666;44.350;9.222;2023-08-01T12:06:11;100611.59;;;27.61;100.00
32324;BME280;25666;44.350;9.222;2023-08-01T12:08:38;100613.69;;;27.70;100.00
32324;BME280;25666;44.350;9.222;2023-08-01T12:11:04;100610.13;;;27.57;100.00
32324;BME280;25666;44.350;9.222;2023-08-01T12:13:29;100593.66;;;27.39;100.00
32324;BME280;25666;44.350;9.222;2023-08-01T12:15:56;100598.22;;;27.28;100.00
32324;BME280;25666;44.350;9.222;2023-08-01T12:18:27;100602.56;;;27.41;100.00
32324;BME280;25666;44.350;9.222;2023-08-01T12:20:53;100612.09;;;27.38;100.00
32324;BME280;25666;44.350;9.222;2023-08-01T12:23:19;100609.34;;;27.35;100.00
32324;BME280;25666;44.350;9.222;2023-08-01T12:25:46;100610.50;;;27.37;100.00
32324;BME280;25666;44.350;9.222;2023-08-01T12:28:13;100614.94;;;27.38;100.00
32324;BME280;25666;44.350;9.222;2023-08-01T12:30:40;100626.19;;;27.33;100.00
32324;BME280;25666;44.350;9.222;2023-08-01T12:33:07;100615.34;;;27.19;100.00
32324;BME280;25666;44.350;9.222;2023-08-01T12:35:32;100619.09;;;27.37;100.00
32324;BME280;25666;44.350;9.222;2023-08-01T12:37:58;100615.84;;;27.26;100.00
32324;BME280;25666;44.350;9.222;2023-08-01T12:40:23;100599.63;;;27.23;100.00